Time;durP1;ratioP1;P1;durP2;ratioP2;P2;SDS_P1;SDS_P2;PMS_P1;PMS_P2;Temp;Humidity;BMP_temperature;BMP_pressure;BME280_temperature;BME280_humidity;BME280_pressure;Samples;Min_cycle;Max_cycle;Signal;HPM_P1;HPM_P2
2021/07/07 00:00:49;;;;;;;55.10;52.20;;;12.20;99.90;;;;;;6309199;22;20487;-82
2021/07/07 00:03:19;;;;;;;63.27;59.90;;;12.20;99.90;;;;;;6339829;22;20397;-82
2021/07/07 00:05:56;;;;;;;;;;;;;;;;;;;;;
2021/07/07 00:08:33;;;;;;;;;;;;;;;;;;;;;
2021/07/07 00:11:01;;;;;;;56.77;53.47;;;12.20;99.90;;;;;;6337379;22;20412;-82
2021/07/07 00:13:42;;;;;;;57.60;54.60;;;12.30;99.90;;;;;;6339720;22;20484;-81
2021/07/07 00:16:22;;;;;;;;;;;;;;;;;;;;;
2021/07/07 00:19:08;;;;;;;67.17;63.77;;;12.20;99.90;;;;;;6335981;22;20413;-85
2021/07/07 00:21:57;;;;;;;72.37;68.80;;;12.20;99.90;;;;;;6339221;22;20405;-85
2021/07/07 00:25:01;;;;;;;68.70;64.90;;;12.10;99.90;;;;;;6339655;22;20394;-85
2021/07/07 00:27:58;;;;;;;73.63;69.53;;;12.00;99.90;;;;;;6247264;22;20895;-85
2021/07/07 00:30:30;;;;;;;81.50;77.40;;;12.00;99.90;;;;;;6263421;22;20440;-85
2021/07/07 00:33:28;;;;;;;90.73;86.10;;;11.90;99.90;;;;;;6349835;22;20412;-85
2021/07/07 00:36:09;;;;;;;87.60;83.40;;;11.90;99.90;;;;;;6305738;22;20419;-84
2021/07/07 00:38:53;;;;;;;86.80;81.97;;;11.90;99.90;;;;;;6349460;22;20412;-86
2021/07/07 00:41:34;;;;;;;85.53;81.40;;;11.90;99.90;;;;;;6338015;22;20397;-85
2021/07/07 00:44:05;;;;;;;90.10;85.90;;;11.90;99.90;;;;;;6339339;22;20393;-85
2021/07/07 00:46:37;;;;;;;85.50;81.40;;;12.10;99.90;;;;;;6339038;22;20404;-84
2021/07/07 00:49:04;;;;;;;80.47;76.77;;;12.10;99.90;;;;;;6339378;22;20528;-84
2021/07/07 00:51:54;;;;;;;73.90;70.23;;;12.20;99.90;;;;;;6339005;22;20397;-85
2021/07/07 00:54:49;;;;;;;76.57;72.77;;;12.00;99.90;;;;;;6329297;22;20415;-84
2021/07/07 00:58:01;;;;;;;62.30;59.00;;;12.10;99.90;;;;;;6330014;22;20435;-85
2021/07/07 01:00:34;;;;;;;57.07;54.27;;;11.90;99.90;;;;;;6261000;22;20407;-84
2021/07/07 01:03:11;;;;;;;64.60;61.50;;;11.90;99.90;;;;;;6339259;22;20763;-85
2021/07/07 01:08:48;;;;;;;;;;;;;;;;;;;;;
2021/07/07 01:11:57;;;;;;;;;;;;;;;;;;;;;
2021/07/07 01:14:54;;;;;;;80.97;77.10;;;11.80;99.90;;;;;;6157558;23;20408;-84
2021/07/07 01:17:39;;;;;;;83.40;79.40;;;11.80;99.90;;;;;;6326958;22;20435;-85
2021/07/07 01:20:31;;;;;;;80.43;76.57;;;11.80;99.90;;;;;;6349207;22;20436;-85
2021/07/07 01:23:07;;;;;;;77.30;73.60;;;11.80;99.90;;;;;;6349015;22;20415;-84
2021/07/07 01:25:35;;;;;;;73.30;69.37;;;11.70;99.90;;;;;;6338860;22;20401;-85
2021/07/07 01:34:11;;;;;;;;;;;;;;;;;;;;;
2021/07/07 01:36:57;;;;;;;;;;;;;;;;;;;;;
2021/07/07 01:39:34;;;;;;;99.87;94.77;;;11.90;99.90;;;;;;6349072;22;20396;-85
2021/07/07 01:42:26;;;;;;;;;;;;;;;;;;;;;
2021/07/07 01:48:52;;;;;;;;;;;;;;;;;;;;;
2021/07/07 01:54:50;;;;;;;102.27;96.90;;;11.80;99.90;;;;;;6186287;23;20500;-85
2021/07/07 01:57:45;;;;;;;108.03;102.20;;;11.70;99.90;;;;;;6052576;23;20436;-86
2021/07/07 02:00:21;;;;;;;106.23;101.00;;;11.70;99.90;;;;;;6057025;23;20417;-85
2021/07/07 02:02:57;;;;;;;109.87;104.67;;;11.60;99.90;;;;;;6257339;22;20412;-85
2021/07/07 02:05:46;;;;;;;;;;;;;;;;;;;;;
2021/07/07 02:08:26;;;;;;;109.80;104.70;;;11.50;99.90;;;;;;6303137;22;20436;-84
2021/07/07 02:10:55;;;;;;;114.60;108.80;;;11.40;99.90;;;;;;6337287;22;20392;-85
2021/07/07 02:13:29;;;;;;;120.37;114.47;;;11.40;99.90;;;;;;6338500;22;20401;-85
2021/07/07 02:15:56;;;;;;;115.90;110.00;;;11.40;99.90;;;;;;6348459;22;20416;-85
2021/07/07 02:18:27;;;;;;;124.90;118.80;;;11.60;99.90;;;;;;6338430;22;20412;-85
2021/07/07 02:20:54;;;;;;;130.00;123.87;;;11.60;99.90;;;;;;6338701;22;20397;-85
2021/07/07 02:23:26;;;;;;;128.13;121.77;;;11.60;99.90;;;;;;6348729;22;20911;-85
2021/07/07 02:25:55;;;;;;;134.63;128.03;;;11.50;99.90;;;;;;6347647;22;20768;-84
2021/07/07 02:28:25;;;;;;;129.00;122.33;;;11.50;99.90;;;;;;6348727;22;20778;-84
2021/07/07 02:30:54;;;;;;;124.40;118.30;;;11.50;99.90;;;;;;6338525;22;20490;-85
2021/07/07 02:33:31;;;;;;;121.63;115.00;;;11.40;99.90;;;;;;6338641;22;20405;-84
2021/07/07 02:36:00;;;;;;;126.33;120.00;;;11.50;99.90;;;;;;6340826;22;20423;-85
2021/07/07 02:38:29;;;;;;;131.07;124.30;;;11.50;99.90;;;;;;6350561;22;20409;-84
2021/07/07 02:41:04;;;;;;;128.03;121.70;;;11.40;99.90;;;;;;6339023;22;20705;-84
2021/07/07 02:43:32;;;;;;;131.60;124.97;;;11.40;99.90;;;;;;6340654;22;20393;-84
2021/07/07 02:46:20;;;;;;;130.17;123.37;;;11.50;99.90;;;;;;6340575;22;20404;-84
2021/07/07 02:48:47;;;;;;;129.63;123.17;;;11.50;99.90;;;;;;6339978;22;20923;-85
2021/07/07 02:51:24;;;;;;;;;;;;;;;;;;;;;
2021/07/07 02:53:51;;;;;;;131.90;125.30;;;11.50;99.90;;;;;;6350834;22;20392;-85
2021/07/07 02:56:18;;;;;;;125.77;119.47;;;11.60;99.90;;;;;;6338483;22;20892;-85
2021/07/07 02:58:50;;;;;;;127.57;120.97;;;11.60;99.90;;;;;;6340358;22;20412;-84
2021/07/07 03:01:23;;;;;;;128.53;121.67;;;11.60;99.90;;;;;;6350573;22;20405;-85
2021/07/07 03:03:50;;;;;;;120.80;114.60;;;11.70;99.90;;;;;;6340256;22;20449;-86
2021/07/07 03:06:29;;;;;;;118.37;112.57;;;11.60;99.90;;;;;;6339886;22;20440;-85
2021/07/07 03:09:02;;;;;;;117.50;111.80;;;11.50;99.90;;;;;;6340132;22;20511;-85
2021/07/07 03:11:45;;;;;;;;;;;;;;;;;;;;;
2021/07/07 03:14:14;;;;;;;120.00;114.20;;;11.50;99.90;;;;;;6347900;22;20408;-84
2021/07/07 03:16:45;;;;;;;113.47;108.17;;;11.50;99.90;;;;;;6350243;22;20408;-85
2021/07/07 03:19:14;;;;;;;109.97;104.70;;;11.50;99.90;;;;;;6350649;22;20466;-85
2021/07/07 03:21:50;;;;;;;;;;;;;;;;;;;;;
2021/07/07 03:24:31;;;;;;;110.70;105.47;;;11.60;99.90;;;;;;6341883;22;20479;-87
2021/07/07 03:27:01;;;;;;;107.17;102.07;;;11.60;99.90;;;;;;6348536;22;20761;-85
2021/07/07 03:29:40;;;;;;;100.93;96.00;;;11.70;99.90;;;;;;6350210;22;20835;-87
2021/07/07 03:32:07;;;;;;;97.40;92.70;;;11.70;99.90;;;;;;6339977;22;20397;-84
2021/07/07 03:34:39;;;;;;;99.07;94.00;;;11.70;99.90;;;;;;6339924;22;20468;-85
2021/07/07 03:37:08;;;;;;;94.97;90.37;;;11.60;99.90;;;;;;6350146;22;20436;-86
2021/07/07 03:43:05;;;;;;;100.63;95.63;;;11.70;99.90;;;;;;6315724;22;20415;-85
2021/07/07 03:45:54;;;;;;;101.23;95.97;;;11.70;99.90;;;;;;6339892;22;20401;-85
2021/07/07 03:51:30;;;;;;;101.10;95.80;;;11.70;99.90;;;;;;6347242;22;20900;-80
2021/07/07 03:53:57;;;;;;;103.50;98.10;;;11.70;99.90;;;;;;6339909;22;20405;-84
2021/07/07 03:56:31;;;;;;;105.77;100.47;;;11.70;99.90;;;;;;6338404;22;20432;-86
2021/07/07 03:59:00;;;;;;;100.23;95.17;;;11.80;99.90;;;;;;6349898;22;20491;-85
2021/07/07 04:01:30;;;;;;;95.20;90.47;;;11.60;99.90;;;;;;6349717;22;20586;-84
2021/07/07 04:04:01;;;;;;;93.37;88.27;;;11.70;99.90;;;;;;6349949;22;20755;-82
2021/07/07 04:06:30;;;;;;;95.40;90.63;;;11.70;99.90;;;;;;6350561;22;20468;-83
2021/07/07 04:08:57;;;;;;;96.27;91.23;;;11.60;99.90;;;;;;6339383;22;20911;-83
2021/07/07 04:11:24;;;;;;;96.77;92.17;;;11.70;99.90;;;;;;6338315;22;20493;-83
2021/07/07 04:13:51;;;;;;;101.90;96.90;;;11.80;99.90;;;;;;6339409;22;20397;-86
2021/07/07 04:16:18;;;;;;;104.17;98.63;;;11.80;99.90;;;;;;6339797;22;20401;-77
2021/07/07 04:18:46;;;;;;;109.03;103.30;;;11.90;99.90;;;;;;6339428;22;20393;-83
2021/07/07 04:21:13;;;;;;;109.17;103.20;;;12.00;99.90;;;;;;6339615;22;20393;-82
2021/07/07 04:23:40;;;;;;;111.07;105.10;;;12.20;99.90;;;;;;6350140;22;20405;-83
2021/07/07 04:26:07;;;;;;;104.53;99.33;;;12.20;99.90;;;;;;6337700;22;20516;-83
2021/07/07 04:28:34;;;;;;;111.27;105.97;;;12.20;99.90;;;;;;6339547;22;20480;-83
2021/07/07 04:31:01;;;;;;;107.77;102.70;;;12.40;99.90;;;;;;6339655;22;20450;-83
2021/07/07 04:33:28;;;;;;;107.97;102.77;;;12.40;99.90;;;;;;6339066;22;20393;-84
2021/07/07 04:36:19;;;;;;;118.43;111.93;;;12.50;99.90;;;;;;6339500;22;20404;-87
2021/07/07 04:38:46;;;;;;;114.27;108.57;;;12.60;99.90;;;;;;6337202;22;20408;-87
2021/07/07 04:41:45;;;;;;;103.63;98.27;;;12.70;99.90;;;;;;6337940;22;20393;-85
2021/07/07 04:44:28;;;;;;;;;;;;;;;;;;;;;
2021/07/07 04:47:37;;;;;;;100.20;95.50;;;12.90;99.90;;;;;;6320378;22;20716;-85
2021/07/07 05:06:35;;;;;;;89.43;84.83;;;14.10;99.90;;;;;;6179536;23;20856;-85
2021/07/07 05:09:47;;;;;;;;;;;;;;;;;;;;;
2021/07/07 05:16:13;;;;;;;35.60;33.00;;;14.90;99.90;;;;;;5979652;24;20540;-83
2021/07/07 05:18:40;;;;;;;25.87;23.57;;;15.30;99.90;;;;;;5989677;24;20419;-77
2021/07/07 05:21:11;;;;;;;23.73;21.33;;;15.60;99.90;;;;;;6006161;23;20502;-82
2021/07/07 05:24:11;;;;;;;21.97;12.30;;;15.90;99.90;;;;;;6267102;22;20500;-87
2021/07/07 05:26:39;;;;;;;21.00;9.40;;;16.20;94.40;;;;;;6333601;22;20900;-76
2021/07/07 05:29:06;;;;;;;16.57;4.47;;;16.60;91.80;;;;;;6339060;22;20950;-78
2021/07/07 05:31:33;;;;;;;19.23;3.93;;;17.10;82.50;;;;;;6338458;22;20401;-81
2021/07/07 05:34:00;;;;;;;19.53;3.40;;;17.60;78.40;;;;;;6338491;22;20397;-81
2021/07/07 05:36:27;;;;;;;21.87;3.13;;;17.80;68.10;;;;;;6338701;22;20479;-78
2021/07/07 05:38:54;;;;;;;20.33;2.47;;;18.20;61.40;;;;;;6339080;22;20485;-76
2021/07/07 05:41:52;;;;;;;21.03;2.40;;;18.10;53.60;;;;;;6337752;22;20397;-84
2021/07/07 05:47:42;;;;;;;20.60;2.30;;;18.30;53.20;;;;;;6339788;22;20788;-84
2021/07/07 05:50:12;;;;;;;21.90;2.70;;;18.50;51.00;;;;;;6349018;22;20981;-82
2021/07/07 05:52:39;;;;;;;25.90;2.47;;;18.60;47.40;;;;;;6348794;22;20404;-82
2021/07/07 05:55:19;;;;;;;20.83;2.63;;;18.70;47.80;;;;;;6348803;22;20419;-82
2021/07/07 05:57:52;;;;;;;23.27;2.93;;;18.80;48.80;;;;;;6347424;22;20447;-82
2021/07/07 06:00:22;;;;;;;22.00;2.27;;;18.80;49.50;;;;;;6338943;22;20397;-81
2021/07/07 06:57:55;;;;;;;31.93;3.07;;;19.70;34.30;;;;;;6333116;22;20424;-76
2021/07/07 07:00:44;;;;;;;26.60;2.70;;;19.90;35.20;;;;;;6340024;22;20397;-77
2021/07/07 07:03:18;;;;;;;25.47;3.13;;;20.10;35.40;;;;;;6350932;22;20396;-82
2021/07/07 07:05:45;;;;;;;28.37;3.20;;;20.30;35.60;;;;;;6350362;22;20866;-77
2021/07/07 07:08:18;;;;;;;28.87;2.37;;;20.40;34.00;;;;;;6340248;22;20419;-82
2021/07/07 07:10:45;;;;;;;32.90;2.80;;;20.70;32.50;;;;;;6349938;22;20762;-82
2021/07/07 07:13:14;;;;;;;35.07;4.17;;;20.80;31.30;;;;;;6339732;22;20875;-75
2021/07/07 07:15:41;;;;;;;30.50;2.90;;;21.10;31.70;;;;;;6336091;22;20955;-74
2021/07/07 07:18:08;;;;;;;34.70;2.83;;;21.50;28.20;;;;;;6338138;22;20488;-75
2021/07/07 07:20:35;;;;;;;36.87;3.10;;;22.10;28.50;;;;;;6348731;22;20436;-77
2021/07/07 07:23:04;;;;;;;41.23;5.00;;;22.20;25.50;;;;;;6337916;22;20696;-79
2021/07/07 07:25:31;;;;;;;41.43;4.67;;;22.50;25.10;;;;;;6337966;22;20918;-75
2021/07/07 07:27:57;;;;;;;42.10;4.57;;;22.50;22.40;;;;;;6336904;22;20481;-77
2021/07/07 08:58:35;;;;;;;42.00;9.77;;;22.70;12.40;;;;;;6278272;22;20911;-77
2021/07/07 09:01:07;;;;;;;36.80;7.73;;;22.50;14.30;;;;;;6307949;22;20484;-84
2021/07/07 09:04:01;;;;;;;35.03;8.63;;;23.00;13.60;;;;;;6318017;22;20501;-83
2021/07/07 09:06:34;;;;;;;35.83;7.00;;;22.70;11.80;;;;;;6305996;22;20741;-83
2021/07/07 09:09:12;;;;;;;34.40;6.33;;;22.60;9.00;;;;;;6307866;22;20401;-85
2021/07/07 09:11:47;;;;;;;33.90;6.07;;;22.70;9.90;;;;;;6316235;22;21171;-85
2021/07/07 09:14:46;;;;;;;35.50;6.73;;;23.00;10.80;;;;;;6317758;22;20404;-84
2021/07/07 09:17:28;;;;;;;34.93;8.30;;;23.70;6.70;;;;;;6307688;22;20422;-83
2021/07/07 09:23:52;;;;;;;36.90;6.83;;;24.40;3.80;;;;;;6184473;23;20319;-84
2021/07/07 09:26:27;;;;;;;37.23;9.93;;;26.00;3.60;;;;;;6197080;22;20416;-78
2021/07/07 09:28:54;;;;;;;46.83;9.70;;;27.00;1.30;;;;;;6318167;22;20459;-80
2021/07/07 09:31:34;;;;;;;41.10;9.27;;;28.40;1.00;;;;;;6307573;22;20468;-81
2021/07/07 09:34:14;;;;;;;48.60;12.40;;;28.80;1.00;;;;;;6317759;22;20492;-82
2021/07/07 09:36:44;;;;;;;69.30;54.00;;;29.10;1.00;;;;;;6317654;22;20424;-81
2021/07/07 09:39:11;;;;;;;50.70;11.17;;;29.00;1.00;;;;;;6307624;22;20421;-81
2021/07/07 09:42:07;;;;;;;66.23;50.03;;;28.30;1.00;;;;;;6306159;22;20393;-82
2021/07/07 09:44:35;;;;;;;55.70;12.90;;;28.10;1.00;;;;;;6307676;22;20406;-81
2021/07/07 09:47:05;;;;;;;54.73;11.30;;;27.90;1.00;;;;;;6317576;22;20439;-81
2021/07/07 09:49:35;;;;;;;52.13;13.33;;;27.20;1.00;;;;;;6317787;22;20790;-82
2021/07/07 09:52:09;;;;;;;64.20;37.47;;;26.80;1.00;;;;;;6317828;22;20488;-82
2021/07/07 09:54:37;;;;;;;67.73;47.00;;;25.60;1.00;;;;;;6218359;22;20434;-82
2021/07/07 09:57:04;;;;;;;54.63;28.47;;;25.10;1.00;;;;;;6274791;22;20398;-83
2021/07/07 09:59:36;;;;;;;46.80;13.93;;;24.90;1.00;;;;;;6299363;22;20443;-84
2021/07/07 10:02:05;;;;;;;45.90;11.30;;;24.80;1.00;;;;;;6317647;22;20476;-82
2021/07/07 10:04:36;;;;;;;41.40;9.20;;;24.80;1.00;;;;;;6229971;22;20921;-81
2021/07/07 10:07:03;;;;;;;41.40;10.33;;;24.90;1.00;;;;;;6307098;22;20893;-82
2021/07/07 10:09:34;;;;;;;41.50;8.77;;;24.90;1.00;;;;;;6307586;22;20397;-81
2021/07/07 10:12:03;;;;;;;39.57;11.80;;;24.80;1.00;;;;;;6305942;22;20430;-82
2021/07/07 10:14:30;;;;;;;44.83;14.13;;;24.70;1.00;;;;;;6307413;22;20473;-82
2021/07/07 10:17:03;;;;;;;40.00;13.33;;;25.20;1.00;;;;;;6307481;22;20930;-80
2021/07/07 10:19:30;;;;;;;44.80;15.27;;;25.80;1.00;;;;;;6307495;22;20786;-79
2021/07/07 10:22:00;;;;;;;44.20;17.30;;;26.30;1.00;;;;;;6306983;22;20406;-79
2021/07/07 10:24:30;;;;;;;46.70;19.17;;;26.10;1.00;;;;;;6317535;22;20397;-79
2021/07/07 10:27:00;;;;;;;43.70;16.33;;;25.80;1.00;;;;;;6316387;22;20444;-80
2021/07/07 10:29:27;;;;;;;46.47;15.67;;;25.70;1.00;;;;;;6307058;22;20911;-79
2021/07/07 10:31:56;;;;;;;45.50;16.77;;;25.60;1.00;;;;;;6317463;22;20425;-80
2021/07/07 10:34:26;;;;;;;39.60;11.40;;;25.70;1.00;;;;;;6306913;22;20873;-80
2021/07/07 10:36:54;;;;;;;43.57;19.07;;;26.40;1.00;;;;;;6317783;22;20500;-80
2021/07/07 10:39:23;;;;;;;46.03;16.10;;;26.30;1.00;;;;;;6307431;22;20437;-81
2021/07/07 10:41:56;;;;;;;46.20;13.97;;;26.70;1.00;;;;;;6305515;22;21102;-80
2021/07/07 10:44:48;;;;;;;50.77;17.00;;;26.70;1.00;;;;;;6307485;22;20397;-79
2021/07/07 10:47:16;;;;;;;46.27;16.77;;;25.90;1.00;;;;;;6307377;22;20491;-80
2021/07/07 10:49:45;;;;;;;46.33;18.30;;;25.60;1.00;;;;;;6307317;22;20451;-79
2021/07/07 10:52:14;;;;;;;44.60;16.23;;;25.50;1.00;;;;;;6306853;22;20947;-80
2021/07/07 10:54:54;;;;;;;41.20;8.03;;;25.30;1.00;;;;;;6306845;22;21015;-79
2021/07/07 10:57:23;;;;;;;43.33;16.70;;;25.90;1.00;;;;;;6313632;22;20405;-79
2021/07/07 10:59:58;;;;;;;43.73;15.53;;;26.50;1.00;;;;;;6307184;22;20986;-80
2021/07/07 11:02:26;;;;;;;46.73;16.10;;;26.60;1.00;;;;;;6317580;22;20413;-79
2021/07/07 11:04:56;;;;;;;44.80;17.00;;;27.00;1.00;;;;;;6317295;22;20428;-80
2021/07/07 11:07:36;;;;;;;49.50;14.67;;;27.90;1.00;;;;;;6317487;22;20402;-80
2021/07/07 11:10:21;;;;;;;47.57;16.73;;;28.70;1.00;;;;;;6303531;22;20404;-80
2021/07/07 11:13:19;;;;;;;52.70;27.13;;;29.10;1.00;;;;;;6305949;22;20412;-81
2021/07/07 11:15:49;;;;;;;59.83;42.53;;;29.40;1.00;;;;;;6317871;22;20402;-80
2021/07/07 11:18:31;;;;;;;88.37;79.80;;;30.80;1.00;;;;;;6307397;22;20402;-81
2021/07/07 11:21:15;;;;;;;83.73;75.30;;;30.70;1.00;;;;;;6317648;22;20424;-81
2021/07/07 11:23:43;;;;;;;127.33;117.43;;;30.20;1.00;;;;;;6307473;22;20436;-81
2021/07/07 11:26:17;;;;;;;85.23;76.73;;;28.60;1.00;;;;;;6305920;22;20430;-80
2021/07/07 11:28:44;;;;;;;105.80;96.83;;;28.20;1.00;;;;;;6307243;22;20681;-81
2021/07/07 11:31:20;;;;;;;106.00;97.07;;;28.20;1.00;;;;;;6317677;22;20411;-82
2021/07/07 11:33:58;;;;;;;94.53;85.63;;;28.30;1.00;;;;;;6306570;22;20879;-81
2021/07/07 11:36:33;;;;;;;104.63;95.97;;;28.10;1.00;;;;;;6304680;22;20402;-81
2021/07/07 11:39:07;;;;;;;88.57;79.90;;;27.70;1.00;;;;;;6307777;22;20727;-80
2021/07/07 11:41:41;;;;;;;90.23;81.90;;;27.00;1.00;;;;;;6317399;22;20443;-82
2021/07/07 11:44:09;;;;;;;81.70;73.20;;;26.70;1.00;;;;;;6308734;22;20402;-81
2021/07/07 11:46:41;;;;;;;58.90;37.07;;;26.30;1.00;;;;;;6318595;22;20787;-81
2021/07/07 11:49:10;;;;;;;52.70;22.90;;;25.80;1.00;;;;;;6308468;22;20943;-77
2021/07/07 11:51:38;;;;;;;53.93;22.10;;;25.10;1.00;;;;;;6308062;22;20429;-79
2021/07/07 11:54:05;;;;;;;49.20;16.93;;;25.00;1.00;;;;;;6308594;22;20433;-78
2021/07/07 11:56:35;;;;;;;45.20;10.57;;;25.10;1.00;;;;;;6307195;22;20489;-79
2021/07/07 11:59:10;;;;;;;44.57;16.00;;;25.20;1.00;;;;;;6308404;22;20434;-79
2021/07/07 12:01:50;;;;;;;;;;;;;;;;;;;;;
2021/07/07 12:22:01;;;;;;;53.47;23.43;;;26.10;1.00;;;;;;6017662;23;20956;-82
2021/07/07 12:24:34;;;;;;;52.80;20.87;;;25.80;1.00;;;;;;6315564;22;20421;-81
2021/07/07 12:30:16;;;;;;;46.30;12.17;;;25.40;1.00;;;;;;6318810;22;20956;-82
2021/07/07 12:32:44;;;;;;;45.70;13.30;;;25.70;1.00;;;;;;6318097;22;20519;-81
2021/07/07 12:35:14;;;;;;;45.50;15.50;;;26.00;1.00;;;;;;6318612;22;20424;-79
2021/07/07 12:37:45;;;;;;;45.53;10.00;;;27.50;1.00;;;;;;6308221;22;20404;-81
2021/07/07 12:40:16;;;;;;;45.20;11.80;;;28.80;1.00;;;;;;6308228;22;20451;-80
2021/07/07 12:42:43;;;;;;;45.70;16.60;;;30.20;1.00;;;;;;6306281;22;20401;-81
2021/07/07 12:45:12;;;;;;;65.60;56.93;;;30.00;1.00;;;;;;6318207;22;20401;-81
2021/07/07 12:47:39;;;;;;;68.73;60.93;;;29.10;1.00;;;;;;6307577;22;20856;-81
2021/07/07 12:50:15;;;;;;;58.07;31.83;;;28.10;1.00;;;;;;6308007;22;20486;-80
2021/07/07 12:52:45;;;;;;;60.47;36.40;;;27.10;1.00;;;;;;6307403;22;20511;-80
2021/07/07 12:55:14;;;;;;;54.70;21.60;;;26.80;1.00;;;;;;6307742;22;20402;-80
2021/07/07 12:57:53;;;;;;;50.40;20.10;;;26.90;1.00;;;;;;6306544;22;20679;-79
2021/07/07 13:00:24;;;;;;;50.90;18.77;;;28.00;1.00;;;;;;6307635;22;20429;-80
2021/07/07 13:02:56;;;;;;;52.30;25.17;;;28.70;1.00;;;;;;6307817;22;20394;-80
2021/07/07 13:05:54;;;;;;;;;;;;;;;;;;;;;
2021/07/07 13:08:29;;;;;;;72.60;64.17;;;28.60;1.00;;;;;;6318518;22;20520;-81
2021/07/07 13:10:57;;;;;;;74.60;67.07;;;28.50;1.00;;;;;;6316055;22;20469;-79
2021/07/07 13:13:31;;;;;;;75.60;67.90;;;28.50;1.00;;;;;;6307573;22;20398;-81
2021/07/07 13:16:11;;;;;;;62.40;49.30;;;29.00;1.00;;;;;;6307975;22;20444;-82
2021/07/07 13:18:58;;;;;;;80.77;72.77;;;29.10;1.00;;;;;;6307515;22;20397;-81
2021/07/07 13:21:36;;;;;;;65.87;54.30;;;29.50;1.00;;;;;;6317964;22;20454;-80
2021/07/07 13:24:08;;;;;;;86.53;78.43;;;28.20;1.00;;;;;;6318122;22;20920;-80
2021/07/07 13:26:43;;;;;;;69.87;58.77;;;27.30;1.00;;;;;;6306132;22;20372;-80
2021/07/07 13:29:20;;;;;;;61.80;36.63;;;26.90;1.00;;;;;;6318249;22;20409;-93
2021/07/07 13:32:01;;;;;;;56.33;29.70;;;26.70;1.00;;;;;;6307946;22;20451;-94
2021/07/07 13:34:31;;;;;;;51.47;19.50;;;26.10;1.00;;;;;;6318398;22;20405;-94
2021/07/07 13:36:58;;;;;;;50.40;20.40;;;25.90;1.00;;;;;;6313927;22;20398;-92
2021/07/07 13:39:27;;;;;;;50.07;19.53;;;25.70;1.00;;;;;;6309326;22;20461;-93
2021/07/07 13:41:57;;;;;;;49.03;14.60;;;25.60;1.00;;;;;;6307630;22;20844;-94
2021/07/07 13:44:24;;;;;;;45.57;12.60;;;25.60;1.00;;;;;;6320659;22;20501;-95
2021/07/07 13:46:51;;;;;;;45.43;13.37;;;26.00;1.00;;;;;;6308283;22;20991;-90
2021/07/07 13:49:18;;;;;;;45.40;13.10;;;26.40;1.00;;;;;;6318016;22;20927;-92
2021/07/07 13:51:47;;;;;;;45.47;10.73;;;26.60;1.00;;;;;;6318360;22;20803;-92
2021/07/07 13:54:14;;;;;;;46.93;14.30;;;26.60;1.00;;;;;;6318255;22;20441;-94
2021/07/07 13:56:45;;;;;;;46.00;11.40;;;26.70;1.00;;;;;;6306510;22;20447;-95
2021/07/07 13:59:17;;;;;;;47.57;17.50;;;27.30;1.00;;;;;;6308131;22;20429;-96
2021/07/07 14:01:49;;;;;;;49.40;14.63;;;26.70;1.00;;;;;;6318165;22;20788;-95
2021/07/07 14:04:18;;;;;;;48.37;14.03;;;26.70;1.00;;;;;;6321347;22;20796;-96
2021/07/07 14:06:50;;;;;;;46.20;13.20;;;26.60;1.00;;;;;;6331292;22;20409;-96
2021/07/07 14:56:17;;;;;;;;;;;;;;;;;;;;;
2021/07/07 15:29:56;;;;;;;;;;;;;;;;;;;;;
2021/07/07 15:32:23;;;;;;;52.13;24.83;;;29.10;1.00;;;;;;6213729;23;20439;-76
2021/07/07 15:34:49;;;;;;;57.23;45.10;;;30.10;1.00;;;;;;6231158;22;20413;-79
2021/07/07 15:37:16;;;;;;;73.23;65.60;;;30.40;1.00;;;;;;6308968;22;20844;-77
2021/07/07 15:39:43;;;;;;;54.30;18.73;;;30.50;1.00;;;;;;6308591;22;20900;-77
2021/07/07 15:42:15;;;;;;;61.23;20.37;;;29.90;1.00;;;;;;6307448;22;20398;-77
2021/07/07 15:44:44;;;;;;;53.03;13.17;;;29.40;1.00;;;;;;6308198;22;20372;-77
2021/07/07 15:47:11;;;;;;;69.00;53.07;;;29.00;1.00;;;;;;6308386;22;20401;-77
2021/07/07 15:49:38;;;;;;;61.33;31.43;;;28.90;1.00;;;;;;6308396;22;20393;-76
2021/07/07 15:52:05;;;;;;;61.43;25.33;;;29.20;1.00;;;;;;6301543;22;20445;-76
2021/07/07 15:54:32;;;;;;;65.83;34.00;;;29.60;1.00;;;;;;6277413;22;20419;-78
2021/07/07 15:56:58;;;;;;;61.90;34.10;;;29.20;1.00;;;;;;6275801;22;20410;-77
2021/07/07 15:59:25;;;;;;;73.67;60.80;;;28.90;1.00;;;;;;6277419;22;20404;-76
2021/07/07 16:01:53;;;;;;;97.73;88.53;;;28.50;1.00;;;;;;6277164;22;20409;-77
2021/07/07 16:04:20;;;;;;;96.20;87.60;;;28.60;1.00;;;;;;6277313;22;20410;-77
2021/07/07 16:06:47;;;;;;;92.23;83.73;;;28.80;1.00;;;;;;6277665;22;20373;-78
2021/07/07 16:09:14;;;;;;;89.03;80.53;;;28.50;1.00;;;;;;6277461;22;20402;-82
2021/07/07 16:11:40;;;;;;;80.63;72.47;;;28.40;1.00;;;;;;6276023;22;20410;-78
2021/07/07 16:14:07;;;;;;;83.50;75.37;;;28.50;1.00;;;;;;6276746;22;20485;-79
2021/07/07 16:16:36;;;;;;;73.93;66.30;;;28.40;1.00;;;;;;6276474;22;20878;-76
2021/07/07 16:19:04;;;;;;;66.47;57.20;;;27.90;1.00;;;;;;6274398;22;20409;-80
2021/07/07 16:21:32;;;;;;;58.30;35.00;;;27.60;1.00;;;;;;6275734;22;20720;-75
2021/07/07 16:23:59;;;;;;;56.73;25.47;;;27.20;1.00;;;;;;6275783;22;20421;-77
2021/07/07 16:26:26;;;;;;;54.17;23.13;;;27.00;1.00;;;;;;6274096;22;20398;-78
2021/07/07 16:28:53;;;;;;;53.77;23.23;;;27.30;1.00;;;;;;6275369;22;20426;-77
2021/07/07 16:31:23;;;;;;;52.60;18.93;;;27.50;1.00;;;;;;6275570;22;20801;-77
2021/07/07 16:33:49;;;;;;;50.00;20.20;;;27.70;1.00;;;;;;6275679;22;20402;-75
2021/07/07 16:36:18;;;;;;;53.97;24.70;;;27.60;1.00;;;;;;6275342;22;20400;-78
2021/07/07 16:38:46;;;;;;;51.10;20.87;;;27.20;1.00;;;;;;6275603;22;20434;-75
2021/07/07 16:41:13;;;;;;;51.63;19.00;;;26.80;1.00;;;;;;6273964;22;20448;-76
2021/07/07 16:43:40;;;;;;;51.00;20.60;;;26.40;1.00;;;;;;6274925;22;20409;-76
2021/07/07 16:46:07;;;;;;;49.37;14.73;;;26.10;1.00;;;;;;6275581;22;20428;-76
2021/07/07 16:48:33;;;;;;;49.20;15.10;;;25.70;1.00;;;;;;6275663;22;20403;-77
2021/07/07 16:51:00;;;;;;;50.07;17.43;;;25.20;1.00;;;;;;6275306;22;20410;-79
2021/07/07 16:53:28;;;;;;;49.30;21.07;;;24.90;1.00;;;;;;6275124;22;20453;-80
2021/07/07 16:55:56;;;;;;;48.00;18.83;;;24.90;1.00;;;;;;6273397;22;20402;-76
2021/07/07 16:58:23;;;;;;;46.70;17.77;;;25.50;1.00;;;;;;6275409;22;20750;-77
2021/07/07 17:00:50;;;;;;;47.27;18.90;;;26.30;1.00;;;;;;6275246;22;20401;-78
2021/07/07 17:03:17;;;;;;;50.20;21.53;;;26.40;1.00;;;;;;6275429;22;20403;-80
2021/07/07 17:05:43;;;;;;;46.33;16.93;;;27.80;1.00;;;;;;6275504;22;20395;-80
2021/07/07 17:08:10;;;;;;;48.60;16.90;;;27.90;1.00;;;;;;6275420;22;20421;-80
2021/07/07 17:10:38;;;;;;;51.27;20.93;;;27.50;1.00;;;;;;6274851;22;20885;-80
2021/07/07 17:13:05;;;;;;;51.33;20.80;;;27.80;1.00;;;;;;6273376;22;20430;-79
2021/07/07 17:15:32;;;;;;;52.97;16.10;;;28.30;1.00;;;;;;6275543;22;20572;-80
2021/07/07 17:18:02;;;;;;;50.60;18.47;;;27.80;1.00;;;;;;6275913;22;20729;-81
2021/07/07 17:20:29;;;;;;;50.67;19.77;;;27.10;1.00;;;;;;6287339;22;20727;-81
2021/07/07 17:22:56;;;;;;;54.90;28.30;;;26.80;1.00;;;;;;6287277;22;20402;-79
2021/07/07 17:25:23;;;;;;;50.13;24.10;;;28.10;1.00;;;;;;6286899;22;20477;-79
2021/07/07 17:33:23;;;;;;;50.93;25.83;;;27.40;1.00;;;;;;6307731;22;20479;-80
2021/07/07 17:35:49;;;;;;;53.57;27.90;;;26.90;1.00;;;;;;6317648;22;20425;-80
2021/07/07 17:38:16;;;;;;;52.60;26.93;;;26.50;1.00;;;;;;6307711;22;20402;-81
2021/07/07 17:40:43;;;;;;;49.20;24.43;;;26.00;1.00;;;;;;6307802;22;20425;-80
2021/07/07 17:43:10;;;;;;;45.83;15.60;;;25.80;1.00;;;;;;6306147;22;20480;-80
2021/07/07 17:45:38;;;;;;;44.30;10.03;;;25.60;1.00;;;;;;6307350;22;20488;-79
2021/07/07 17:48:08;;;;;;;44.60;9.30;;;25.40;1.00;;;;;;6307148;22;20397;-81
2021/07/07 17:50:38;;;;;;;41.23;6.63;;;25.30;1.00;;;;;;6307181;22;20424;-81
2021/07/07 17:53:06;;;;;;;40.70;7.30;;;25.30;1.00;;;;;;6277432;22;20836;-81
2021/07/07 17:55:33;;;;;;;42.07;5.53;;;25.70;1.00;;;;;;6276751;22;20497;-81
2021/07/07 17:58:00;;;;;;;41.03;6.70;;;25.80;1.00;;;;;;6274771;22;20399;-80
2021/07/07 18:00:27;;;;;;;41.43;6.60;;;25.40;1.00;;;;;;6286618;22;20435;-82
2021/07/07 18:02:54;;;;;;;40.03;6.20;;;25.10;1.70;;;;;;6276531;22;20481;-83
2021/07/07 18:05:21;;;;;;;41.53;4.93;;;24.90;2.30;;;;;;6286547;22;20414;-82
2021/07/07 18:07:49;;;;;;;41.30;6.83;;;24.70;3.70;;;;;;6276465;22;20403;-83
2021/07/07 18:10:16;;;;;;;38.00;4.80;;;24.50;1.00;;;;;;6276743;22;20639;-82
2021/07/07 18:12:43;;;;;;;41.30;5.27;;;24.50;1.00;;;;;;6274630;22;20433;-82
2021/07/07 18:15:11;;;;;;;41.07;3.97;;;24.30;1.30;;;;;;6276565;22;20398;-82
2021/07/07 18:17:38;;;;;;;37.33;3.93;;;24.30;2.20;;;;;;6276516;22;20785;-81
2021/07/07 18:28:07;;;;;;;34.53;2.80;;;24.20;4.60;;;;;;6320658;22;20497;-83